Time;durP1;ratioP1;P1;durP2;ratioP2;P2;SDS_P1;SDS_P2;PMS_P1;PMS_P2;Temp;Humidity;BMP_temperature;BMP_pressure;BME280_temperature;BME280_humidity;BME280_pressure;Samples;Min_cycle;Max_cycle;Signal;HPM_P1;HPM_P2
2023/05/30 00:02:33;;;;;;;30.83;11.63;;;;;;;10.68;100.00;100632.81;5082795;28;20083;-78
2023/05/30 00:05:17;;;;;;;30.67;12.07;;;;;;;10.60;100.00;100614.34;5080650;28;20042;-78
2023/05/30 00:08:02;;;;;;;27.65;10.50;;;;;;;10.64;100.00;100623.59;5085303;28;20042;-79
2023/05/30 00:10:46;;;;;;;25.10;12.35;;;;;;;10.49;100.00;100625.16;5079781;28;20039;-78
2023/05/30 00:13:30;;;;;;;30.52;10.88;;;;;;;10.64;100.00;100631.47;5075027;28;20477;-78
2023/05/30 00:16:14;;;;;;;34.58;12.05;;;;;;;10.61;100.00;100633.56;5079363;28;20410;-78
2023/05/30 00:18:58;;;;;;;27.33;11.15;;;;;;;10.63;100.00;100635.09;5073970;28;20066;-78
2023/05/30 00:21:42;;;;;;;31.38;12.90;;;;;;;10.55;100.00;100632.38;5079586;28;20089;-77
2023/05/30 00:24:28;;;;;;;32.20;11.20;;;;;;;10.41;100.00;100610.16;5079738;28;20058;-79
2023/05/30 00:27:13;;;;;;;31.27;12.02;;;;;;;10.55;100.00;100627.13;5079764;28;20405;-77
2023/05/30 00:29:57;;;;;;;31.23;11.55;;;;;;;10.48;100.00;100621.69;5088178;28;20097;-79
2023/05/30 00:32:43;;;;;;;31.23;11.90;;;;;;;10.45;100.00;100629.06;5079518;28;20066;-79
2023/05/30 00:35:27;;;;;;;31.95;10.73;;;;;;;10.37;100.00;100622.72;5076378;28;20107;-77
2023/05/30 00:38:11;;;;;;;24.80;10.45;;;;;;;10.41;100.00;100621.47;5081605;28;20469;-80
2023/05/30 00:40:55;;;;;;;28.38;10.35;;;;;;;10.42;100.00;100631.03;5078568;28;20090;-78
2023/05/30 00:43:41;;;;;;;29.75;10.43;;;;;;;10.38;100.00;100621.75;5087320;28;20062;-78
2023/05/30 00:46:29;;;;;;;26.75;10.73;;;;;;;10.28;100.00;100621.03;5079555;28;20104;-80
2023/05/30 00:49:13;;;;;;;33.22;9.60;;;;;;;10.17;100.00;100597.66;5085552;28;20050;-80
2023/05/30 00:51:57;;;;;;;25.77;9.15;;;;;;;10.29;100.00;100613.00;5086329;28;20084;-79
2023/05/30 00:54:44;;;;;;;29.88;10.50;;;;;;;10.24;100.00;100606.59;5074180;28;20035;-80
2023/05/30 00:57:33;;;;;;;25.02;9.18;;;;;;;10.19;100.00;100612.28;5084357;28;20079;-79
2023/05/30 01:00:19;;;;;;;28.08;9.07;;;;;;;10.19;100.00;100621.94;5075867;28;20047;-79
2023/05/30 01:03:04;;;;;;;28.40;10.43;;;;;;;10.18;100.00;100620.28;5077620;28;20031;-79
2023/05/30 01:05:48;;;;;;;19.45;9.23;;;;;;;10.14;100.00;100625.03;5080825;28;20043;-79
2023/05/30 01:08:33;;;;;;;28.73;9.93;;;;;;;10.04;100.00;100619.88;5080569;28;20109;-80
2023/05/30 01:11:30;;;;;;;28.40;9.45;;;;;;;10.05;100.00;100623.31;5081551;28;20038;-80
2023/05/30 01:14:22;;;;;;;25.98;8.82;;;;;;;9.92;100.00;100634.19;5077486;28;20086;-80
2023/05/30 01:17:19;;;;;;;32.88;9.57;;;;;;;9.91;100.00;100624.69;5077564;28;20043;-80
2023/05/30 01:20:07;;;;;;;21.52;8.68;;;;;;;9.85;100.00;100637.44;5084971;28;20059;-81
2023/05/30 01:23:10;;;;;;;32.20;10.05;;;;;;;9.79;100.00;100627.53;5078974;28;20080;-79
2023/05/30 01:26:21;;;;;;;30.55;10.02;;;;;;;9.80;100.00;100634.41;5084588;28;20052;-79
2023/05/30 01:29:06;;;;;;;32.88;10.85;;;;;;;9.71;100.00;100624.84;5077885;28;20134;-79
2023/05/30 01:31:53;;;;;;;29.95;9.07;;;;;;;9.69;100.00;100616.28;5076639;28;20073;-79
2023/05/30 01:34:38;;;;;;;23.38;8.90;;;;;;;9.72;100.00;100616.00;5081786;28;20089;-80
2023/05/30 01:37:21;;;;;;;26.98;10.15;;;;;;;9.63;100.00;100629.97;5075384;28;20153;-79
2023/05/30 01:40:08;;;;;;;30.23;9.55;;;;;;;9.60;100.00;100617.19;5082117;28;20074;-78
2023/05/30 01:43:07;;;;;;;27.33;9.65;;;;;;;9.61;100.00;100618.81;5085458;28;20398;-78
2023/05/30 01:46:23;;;;;;;24.02;9.85;;;;;;;9.62;100.00;100628.34;5072937;28;20150;-79
2023/05/30 01:49:31;;;;;;;30.63;9.88;;;;;;;9.59;100.00;100629.47;5074315;28;20102;-78
2023/05/30 01:52:20;;;;;;;30.58;9.38;;;;;;;9.53;100.00;100632.66;5076659;28;20174;-79
2023/05/30 01:55:07;;;;;;;28.00;10.23;;;;;;;9.55;100.00;100636.81;5088962;28;20043;-78
2023/05/30 01:57:53;;;;;;;31.35;10.27;;;;;;;9.57;100.00;100640.09;5076210;28;20445;-79
2023/05/30 02:00:37;;;;;;;26.05;8.73;;;;;;;9.54;100.00;100652.69;5081281;28;20109;-79
2023/05/30 02:03:23;;;;;;;24.40;8.85;;;;;;;9.64;100.00;100629.03;5076747;28;20101;-78
2023/05/30 02:06:08;;;;;;;29.88;10.65;;;;;;;9.83;100.00;100647.25;5076727;28;20047;-79
2023/05/30 02:08:52;;;;;;;21.55;9.30;;;;;;;10.09;100.00;100649.09;5081881;28;20038;-79
2023/05/30 02:11:37;;;;;;;33.00;10.00;;;;;;;10.36;100.00;100652.59;5082820;28;20051;-79
2023/05/30 02:14:22;;;;;;;21.15;9.50;;;;;;;10.47;100.00;100650.72;5077070;28;20100;-79
2023/05/30 02:17:06;;;;;;;19.30;9.05;;;;;;;10.66;100.00;100642.66;5076452;28;20074;-79
2023/05/30 02:19:50;;;;;;;26.05;8.80;;;;;;;10.76;100.00;100654.84;5083661;28;20043;-79
2023/05/30 02:22:34;;;;;;;28.08;9.70;;;;;;;10.89;100.00;100652.59;5078214;28;20131;-79
2023/05/30 02:25:20;;;;;;;19.73;9.40;;;;;;;10.86;100.00;100650.31;5081704;28;20036;-79
2023/05/30 02:28:04;;;;;;;26.92;9.32;;;;;;;10.68;100.00;100645.94;5078334;28;20051;-78
2023/05/30 02:30:48;;;;;;;20.15;8.80;;;;;;;11.01;100.00;100655.78;5079090;28;20051;-78
2023/05/30 02:33:32;;;;;;;34.97;9.98;;;;;;;11.02;100.00;100659.25;5083105;28;20059;-78
2023/05/30 02:36:16;;;;;;;27.27;8.90;;;;;;;10.95;100.00;100649.34;5076131;28;20119;-78
2023/05/30 02:39:06;;;;;;;24.60;8.50;;;;;;;11.06;100.00;100636.94;5075720;28;20505;-79
2023/05/30 02:41:51;;;;;;;25.17;8.45;;;;;;;10.94;100.00;100657.41;5079326;28;20067;-80
2023/05/30 02:44:35;;;;;;;23.38;8.55;;;;;;;11.14;100.00;100655.34;5077675;28;20080;-79
2023/05/30 02:47:19;;;;;;;32.45;9.15;;;;;;;11.12;100.00;100665.19;5080480;28;20043;-79
2023/05/30 02:50:04;;;;;;;20.83;7.63;;;;;;;10.94;100.00;100652.97;5076030;28;20039;-79
2023/05/30 02:52:48;;;;;;;22.60;8.90;;;;;;;11.10;100.00;100669.78;5078496;28;20043;-78
2023/05/30 02:55:32;;;;;;;27.73;9.23;;;;;;;11.13;100.00;100675.56;5079504;28;20377;-79
2023/05/30 02:58:16;;;;;;;19.90;8.18;;;;;;;11.25;100.00;100683.16;5079209;28;20044;-79
2023/05/30 03:01:00;;;;;;;28.73;8.38;;;;;;;11.14;100.00;100663.22;5081038;28;20038;-78
2023/05/30 03:03:44;;;;;;;26.67;8.98;;;;;;;11.38;100.00;100674.81;5078032;28;20082;-78
2023/05/30 03:06:28;;;;;;;25.17;8.95;;;;;;;11.44;100.00;100668.94;5080307;28;20394;-78
2023/05/30 03:09:13;;;;;;;25.63;8.57;;;;;;;11.53;100.00;100667.97;5078881;28;20047;-78
2023/05/30 03:11:57;;;;;;;31.83;8.65;;;;;;;11.39;100.00;100671.19;5073932;28;20050;-80
2023/05/30 03:14:41;;;;;;;29.45;8.80;;;;;;;11.29;100.00;100666.91;5078433;28;20143;-78
2023/05/30 03:17:25;;;;;;;23.55;7.80;;;;;;;11.31;100.00;100669.38;5072753;28;20078;-80
2023/05/30 03:20:10;;;;;;;23.65;7.72;;;;;;;11.56;100.00;100683.41;5080336;28;20134;-79
2023/05/30 03:22:54;;;;;;;30.70;9.05;;;;;;;11.35;100.00;100664.63;5079004;28;20038;-81
2023/05/30 03:25:38;;;;;;;27.65;9.20;;;;;;;11.34;100.00;100678.75;5086019;28;20058;-79
2023/05/30 03:28:22;;;;;;;26.77;8.35;;;;;;;11.22;100.00;100686.94;5075195;28;20077;-78
2023/05/30 03:31:06;;;;;;;26.30;8.25;;;;;;;11.40;100.00;100683.38;5081336;28;20055;-78
2023/05/30 03:33:50;;;;;;;23.40;8.23;;;;;;;11.37;100.00;100687.16;5081123;28;20106;-77
2023/05/30 03:36:35;;;;;;;23.48;8.57;;;;;;;11.55;100.00;100680.97;5081496;28;20093;-80
2023/05/30 03:39:22;;;;;;;20.75;8.27;;;;;;;11.53;100.00;100682.94;5085492;28;20101;-78
2023/05/30 03:42:06;;;;;;;23.30;8.57;;;;;;;11.61;100.00;100684.75;5081192;28;20039;-80
2023/05/30 03:44:50;;;;;;;20.02;7.25;;;;;;;11.62;100.00;100679.31;5084132;28;20173;-79
2023/05/30 03:47:34;;;;;;;33.65;8.60;;;;;;;11.45;100.00;100677.63;5081562;28;20044;-80
2023/05/30 03:50:18;;;;;;;30.98;8.77;;;;;;;11.64;100.00;100682.63;5086760;28;20043;-79
2023/05/30 03:53:02;;;;;;;28.80;8.52;;;;;;;11.60;100.00;100677.84;5081148;28;20085;-79
2023/05/30 03:55:47;;;;;;;18.23;7.60;;;;;;;11.67;100.00;100677.03;5078000;28;20047;-77
2023/05/30 03:58:31;;;;;;;18.05;7.60;;;;;;;11.76;100.00;100690.22;5080329;28;20043;-77
2023/05/30 04:01:15;;;;;;;24.75;8.40;;;;;;;11.71;100.00;100680.16;5082360;28;20040;-77
2023/05/30 04:03:59;;;;;;;18.17;7.07;;;;;;;11.78;100.00;100694.31;5079335;28;20093;-77
2023/05/30 04:06:45;;;;;;;26.73;8.15;;;;;;;11.58;100.00;100697.22;5077695;28;20079;-79
2023/05/30 04:09:29;;;;;;;30.80;8.57;;;;;;;11.27;100.00;100689.06;5082896;28;20093;-79
2023/05/30 04:12:13;;;;;;;18.50;7.70;;;;;;;11.38;100.00;100691.41;5083351;28;20043;-80
2023/05/30 04:14:57;;;;;;;18.35;7.00;;;;;;;11.40;100.00;100699.97;5080026;28;20117;-80
2023/05/30 04:17:41;;;;;;;19.42;7.30;;;;;;;11.35;100.00;100701.41;5084326;28;20504;-78
2023/05/30 04:20:25;;;;;;;22.88;7.28;;;;;;;11.49;100.00;100690.31;5081434;28;20556;-79
2023/05/30 04:23:10;;;;;;;24.83;7.57;;;;;;;11.47;100.00;100691.44;5084505;28;20051;-79
2023/05/30 04:25:55;;;;;;;25.30;7.10;;;;;;;11.28;100.00;100696.81;5082845;28;20046;-79
2023/05/30 04:28:41;;;;;;;21.17;7.00;;;;;;;11.35;100.00;100696.16;5079782;28;20145;-79
2023/05/30 04:31:26;;;;;;;26.30;7.35;;;;;;;11.51;100.00;100708.56;5082010;28;20082;-79
2023/05/30 04:34:11;;;;;;;25.27;7.05;;;;;;;11.70;100.00;100700.41;5081434;28;20105;-78
2023/05/30 04:36:56;;;;;;;22.98;6.13;;;;;;;11.68;100.00;100701.53;5084192;28;20105;-77
2023/05/30 04:39:41;;;;;;;23.42;6.93;;;;;;;11.76;100.00;100701.53;5081646;28;20039;-78
2023/05/30 04:42:28;;;;;;;20.05;7.18;;;;;;;11.46;100.00;100695.88;5075142;28;20081;-79
2023/05/30 04:45:14;;;;;;;22.20;6.88;;;;;;;11.81;100.00;100694.00;5077848;28;20039;-79
2023/05/30 04:47:59;;;;;;;21.27;8.02;;;;;;;11.79;100.00;100695.97;5075919;28;20509;-78
2023/05/30 04:50:46;;;;;;;22.50;7.10;;;;;;;12.00;100.00;100699.97;5085428;28;20042;-81
2023/05/30 04:53:30;;;;;;;16.63;6.18;;;;;;;11.86;100.00;100704.88;5080220;28;20133;-80
2023/05/30 04:56:14;;;;;;;20.45;6.35;;;;;;;11.81;100.00;100691.38;5078694;28;20054;-78
2023/05/30 04:58:58;;;;;;;20.33;6.10;;;;;;;12.00;100.00;100699.97;5076379;28;20394;-80
2023/05/30 05:01:42;;;;;;;25.38;7.43;;;;;;;11.72;100.00;100702.84;5076492;28;20044;-79
2023/05/30 05:04:25;;;;;;;21.25;7.28;;;;;;;11.82;100.00;100693.03;5084960;28;20047;-79
2023/05/30 05:07:10;;;;;;;15.85;6.30;;;;;;;11.78;100.00;100696.94;5086099;28;20067;-79
2023/05/30 05:09:53;;;;;;;20.30;6.57;;;;;;;12.32;100.00;100698.34;5078661;28;20035;-80
2023/05/30 05:12:38;;;;;;;20.15;5.97;;;;;;;12.19;100.00;100704.09;5079845;28;20125;-79
2023/05/30 05:15:22;;;;;;;21.67;6.72;;;;;;;12.62;100.00;100703.09;5084464;28;20572;-80
2023/05/30 05:18:06;;;;;;;17.98;5.82;;;;;;;11.76;100.00;100706.81;5077076;28;20061;-80
2023/05/30 05:20:50;;;;;;;19.17;6.10;;;;;;;12.19;100.00;100704.09;5082250;28;20043;-80
2023/05/30 05:23:34;;;;;;;22.80;8.00;;;;;;;12.42;100.00;100703.44;5076890;28;20044;-80
2023/05/30 05:26:18;;;;;;;;;;;;;;;12.55;100.00;100710.84;5081947;28;20034;-80
2023/05/30 05:29:02;;;;;;;21.08;6.60;;;;;;;12.39;100.00;100703.78;5079497;28;19962;-79
2023/05/30 05:31:46;;;;;;;21.48;7.18;;;;;;;12.82;100.00;100704.38;5074795;28;20039;-79
2023/05/30 05:34:30;;;;;;;20.48;6.43;;;;;;;12.56;100.00;100699.31;5080216;28;20047;-81
2023/05/30 05:37:15;;;;;;;20.20;6.82;;;;;;;12.35;100.00;100700.66;5079327;28;20519;-81
2023/05/30 05:40:01;;;;;;;16.92;6.72;;;;;;;12.27;100.00;100711.19;5076664;28;20447;-81
2023/05/30 05:42:44;;;;;;;19.63;5.85;;;;;;;12.40;100.00;100711.53;5077285;28;20525;-80
2023/05/30 05:45:28;;;;;;;14.38;6.47;;;;;;;12.60;100.00;100715.63;5076691;28;20051;-80
2023/05/30 05:48:12;;;;;;;16.95;6.65;;;;;;;12.83;100.00;100715.75;5078489;28;20098;-80
2023/05/30 05:50:56;;;;;;;14.20;6.97;;;;;;;13.02;100.00;100724.28;5080621;28;20541;-80
2023/05/30 05:53:40;;;;;;;;;;;;;;;12.39;100.00;100719.59;5076980;28;20446;-81
2023/05/30 05:56:24;;;;;;;19.25;6.03;;;;;;;12.64;100.00;100712.50;5085573;28;19962;-80
2023/05/30 05:59:08;;;;;;;17.02;7.13;;;;;;;12.60;100.00;100715.63;5078896;28;20039;-80
2023/05/30 06:01:52;;;;;;;20.67;6.75;;;;;;;12.53;100.00;100716.28;5074496;28;20385;-79
2023/05/30 06:04:36;;;;;;;26.08;7.50;;;;;;;12.94;100.00;100718.03;5085881;28;20054;-80
2023/05/30 06:07:20;;;;;;;16.15;6.18;;;;;;;13.19;100.00;100712.69;5076021;28;20047;-80
2023/05/30 06:10:05;;;;;;;18.92;6.10;;;;;;;13.43;100.00;100716.25;5083125;28;20525;-80
2023/05/30 06:12:50;;;;;;;19.05;7.65;;;;;;;13.96;100.00;100724.38;5074611;28;20039;-80
2023/05/30 06:15:33;;;;;;;13.90;6.10;;;;;;;13.90;100.00;100719.78;5077349;28;20051;-81
2023/05/30 06:18:18;;;;;;;17.50;6.60;;;;;;;13.43;100.00;100724.16;5076082;28;20572;-80
2023/05/30 06:21:02;;;;;;;19.65;6.57;;;;;;;13.84;100.00;100715.19;5078799;28;20520;-81
2023/05/30 06:23:46;;;;;;;20.70;5.95;;;;;;;13.52;100.00;100714.41;5072425;28;20437;-81
2023/05/30 06:26:30;;;;;;;22.35;6.45;;;;;;;14.02;100.00;100719.38;5082379;28;20034;-81
2023/05/30 06:29:14;;;;;;;18.55;5.90;;;;;;;13.91;100.00;100724.06;5078533;28;20048;-81
2023/05/30 06:31:58;;;;;;;14.15;5.82;;;;;;;14.54;100.00;100717.81;5072558;28;20035;-82
2023/05/30 06:34:45;;;;;;;14.93;5.68;;;;;;;15.12;100.00;100718.09;5085671;28;20482;-84
2023/05/30 06:37:29;;;;;;;18.92;5.95;;;;;;;15.06;100.00;100718.81;5080926;28;20126;-81
2023/05/30 06:40:13;;;;;;;17.55;5.45;;;;;;;14.60;100.00;100722.38;5078666;28;20096;-81
2023/05/30 06:42:58;;;;;;;25.15;6.25;;;;;;;14.10;100.00;100716.69;5076150;28;20127;-82
2023/05/30 06:45:43;;;;;;;17.75;5.35;;;;;;;14.65;100.00;100714.72;5077095;28;20090;-80
2023/05/30 06:48:27;;;;;;;22.80;5.93;;;;;;;14.29;100.00;100710.09;5079460;28;20090;-81
2023/05/30 06:51:11;;;;;;;22.40;5.43;;;;;;;14.53;100.00;100714.34;5074539;28;20062;-85
2023/05/30 06:53:57;;;;;;;15.52;4.93;;;;;;;14.68;100.00;100724.94;5066766;28;20576;-82
2023/05/30 06:56:41;;;;;;;16.33;6.03;;;;;;;15.07;100.00;100720.47;5055293;28;20110;-81
2023/05/30 06:59:25;;;;;;;12.30;4.63;;;;;;;15.17;100.00;100716.69;5086588;28;20672;-84
2023/05/30 07:02:10;;;;;;;19.17;5.10;;;;;;;15.05;100.00;100724.28;5092997;28;20549;-82
2023/05/30 07:04:53;;;;;;;15.20;4.72;;;;;;;15.09;100.00;100710.53;5093916;28;20082;-82
2023/05/30 07:07:39;;;;;;;14.85;4.93;;;;;;;15.18;100.00;100737.69;5085293;28;20135;-84
2023/05/30 07:10:23;;;;;;;17.80;5.63;;;;;;;14.92;100.00;100720.44;5075898;28;20138;-83
2023/05/30 07:13:07;;;;;;;13.73;6.53;;;;;;;15.08;100.00;100723.91;5074438;28;20186;-83
2023/05/30 07:15:51;;;;;;;13.00;5.25;;;;;;;15.60;100.00;100719.47;5074629;28;20459;-81
2023/05/30 07:18:35;;;;;;;16.40;5.53;;;;;;;15.19;100.00;100720.81;5080986;28;20870;-83
2023/05/30 07:21:19;;;;;;;21.55;5.82;;;;;;;15.62;100.00;100735.97;5083095;28;20051;-84
2023/05/30 07:24:06;;;;;;;8.98;4.82;;;;;;;16.27;100.00;100724.63;5083457;28;20389;-81
2023/05/30 07:26:51;;;;;;;24.80;8.38;;;;;;;15.83;100.00;100737.84;5083135;28;20497;-83
2023/05/30 07:29:35;;;;;;;17.20;6.03;;;;;;;15.41;100.00;100724.34;5078839;28;20062;-85
2023/05/30 07:32:19;;;;;;;17.83;5.95;;;;;;;15.63;100.00;100727.06;5076957;28;20055;-84
2023/05/30 07:35:03;;;;;;;16.98;5.55;;;;;;;15.62;100.00;100727.22;5076953;28;20090;-84
2023/05/30 07:37:50;;;;;;;14.90;6.40;;;;;;;15.92;100.00;100727.19;5080852;28;20561;-84
2023/05/30 07:40:34;;;;;;;16.88;6.47;;;;;;;15.51;100.00;100718.75;5072473;28;20055;-84
2023/05/30 07:43:18;;;;;;;15.05;6.80;;;;;;;15.90;100.00;100729.19;5076514;28;20036;-85
2023/05/30 07:46:03;;;;;;;18.08;6.95;;;;;;;15.94;100.00;100725.97;5082098;28;20374;-83
2023/05/30 07:48:46;;;;;;;16.20;6.60;;;;;;;15.50;100.00;100743.56;5075690;28;20473;-75
2023/05/30 07:51:31;;;;;;;16.35;5.75;;;;;;;15.11;100.00;100739.41;5067688;28;20070;-75
2023/05/30 07:54:15;;;;;;;17.08;5.22;;;;;;;15.82;100.00;100738.84;5068165;28;20112;-76
2023/05/30 07:56:59;;;;;;;14.00;5.38;;;;;;;15.52;100.00;100744.22;5075398;28;20034;-76
2023/05/30 07:59:43;;;;;;;12.13;5.50;;;;;;;15.78;100.00;100742.91;5077129;28;20098;-78
2023/05/30 08:02:27;;;;;;;18.33;6.53;;;;;;;16.29;100.00;100730.56;5081576;28;20039;-77
2023/05/30 08:05:11;;;;;;;14.70;5.95;;;;;;;16.10;99.39;100732.84;5084114;28;20056;-77
2023/05/30 08:07:55;;;;;;;15.38;5.97;;;;;;;14.80;100.00;100740.41;5079419;28;20062;-77
2023/05/30 08:10:39;;;;;;;20.63;6.93;;;;;;;14.35;100.00;100751.66;5079576;28;20120;-76
2023/05/30 08:13:29;;;;;;;13.95;6.95;;;;;;;15.50;100.00;100746.22;5083401;28;20040;-77
2023/05/30 08:16:14;;;;;;;13.18;5.65;;;;;;;15.81;100.00;100744.34;5085387;28;20043;-77
2023/05/30 08:18:58;;;;;;;17.05;6.63;;;;;;;15.67;100.00;100748.66;5083672;28;20039;-78
2023/05/30 08:21:43;;;;;;;17.55;6.45;;;;;;;15.51;100.00;100734.63;5084379;28;20453;-77
2023/05/30 08:24:28;;;;;;;22.05;6.78;;;;;;;15.30;100.00;100758.38;5080656;28;20547;-77
2023/05/30 08:27:13;;;;;;;16.98;7.32;;;;;;;14.97;100.00;100757.75;5086937;28;20542;-76
2023/05/30 08:29:59;;;;;;;16.75;7.07;;;;;;;14.90;100.00;100746.25;5075127;28;20461;-77
2023/05/30 08:32:43;;;;;;;16.52;7.03;;;;;;;15.13;100.00;100747.97;5082475;28;20586;-76
2023/05/30 08:35:28;;;;;;;16.65;6.43;;;;;;;14.43;100.00;100748.94;5082859;28;20119;-75
2023/05/30 08:38:12;;;;;;;13.82;5.72;;;;;;;14.53;100.00;100747.88;5082194;28;20039;-79
2023/05/30 08:40:56;;;;;;;14.85;6.05;;;;;;;14.98;100.00;100738.25;5079513;28;20089;-76
2023/05/30 08:43:40;;;;;;;;;;;;;;;15.41;100.00;100748.16;5089284;28;20492;-77
2023/05/30 08:46:25;;;;;;;18.85;6.00;;;;;;;15.91;100.00;100754.66;5083486;28;20376;-78
2023/05/30 08:49:15;;;;;;;12.68;5.50;;;;;;;16.10;100.00;100738.13;5083906;28;20079;-78
2023/05/30 08:52:02;;;;;;;11.95;5.80;;;;;;;15.52;100.00;100735.47;5079458;28;20576;-79
2023/05/30 08:54:59;;;;;;;20.60;8.40;;;;;;;15.87;100.00;100737.47;5088198;28;20106;-78
2023/05/30 08:58:04;;;;;;;12.38;6.20;;;;;;;16.34;100.00;100728.19;5081399;28;20054;-80
2023/05/30 09:00:49;;;;;;;21.90;6.10;;;;;;;15.70;100.00;100729.75;5086027;28;20085;-79
2023/05/30 09:03:34;;;;;;;17.52;5.90;;;;;;;16.11;100.00;100729.22;5083067;28;20075;-78
2023/05/30 09:06:19;;;;;;;17.13;6.45;;;;;;;15.67;100.00;100725.66;5086014;28;20085;-79
2023/05/30 09:09:04;;;;;;;21.08;6.28;;;;;;;15.49;100.00;100731.34;5082002;28;20038;-79
2023/05/30 09:11:48;;;;;;;13.93;6.88;;;;;;;16.01;100.00;100743.75;5084321;28;20043;-79
2023/05/30 09:14:33;;;;;;;15.52;7.10;;;;;;;15.56;100.00;100729.63;5079607;28;20055;-78
2023/05/30 09:17:17;;;;;;;17.20;6.25;;;;;;;15.49;100.00;100736.66;5079118;28;20094;-80
2023/05/30 09:20:02;;;;;;;15.55;7.53;;;;;;;15.22;100.00;100744.25;5082750;28;20046;-79
2023/05/30 09:22:46;;;;;;;13.95;7.32;;;;;;;15.70;100.00;100743.00;5078753;28;20043;-78
2023/05/30 09:25:48;;;;;;;15.52;6.50;;;;;;;15.98;100.00;100739.66;5085711;28;20123;-79
2023/05/30 09:28:33;;;;;;;13.40;7.43;;;;;;;16.44;100.00;100732.31;5082828;28;20063;-78
2023/05/30 09:31:17;;;;;;;11.40;7.50;;;;;;;15.34;100.00;100739.31;5081268;28;20048;-79
2023/05/30 09:34:02;;;;;;;19.75;8.50;;;;;;;15.12;100.00;100748.97;5085052;28;20107;-79
2023/05/30 09:36:54;;;;;;;18.55;8.00;;;;;;;15.19;100.00;100752.56;5074964;28;20512;-80
2023/05/30 09:39:38;;;;;;;18.60;9.15;;;;;;;13.84;100.00;100752.97;5087059;28;20039;-78
2023/05/30 09:42:22;;;;;;;19.35;8.63;;;;;;;14.65;100.00;100748.28;5084596;28;20086;-79
2023/05/30 09:45:11;;;;;;;14.05;7.75;;;;;;;15.31;100.00;100739.69;5081904;28;20421;-78
2023/05/30 09:47:55;;;;;;;14.70;6.72;;;;;;;15.32;100.00;100745.78;5084138;28;20090;-78
2023/05/30 09:50:39;;;;;;;13.02;7.13;;;;;;;15.11;100.00;100742.06;5085286;28;20039;-79
2023/05/30 09:53:27;;;;;;;17.50;7.15;;;;;;;15.89;100.00;100746.06;5079162;28;20113;-80
2023/05/30 09:56:11;;;;;;;18.08;7.53;;;;;;;15.31;100.00;100744.97;5087903;28;20046;-78
2023/05/30 09:59:10;;;;;;;16.33;7.72;;;;;;;15.20;100.00;100743.63;5081793;28;20051;-80
2023/05/30 10:01:54;;;;;;;16.95;7.80;;;;;;;15.95;100.00;100740.06;5078921;28;20171;-81
2023/05/30 10:04:41;;;;;;;12.25;7.30;;;;;;;16.55;100.00;100729.16;5086904;28;20086;-83
2023/05/30 10:07:25;;;;;;;14.90;7.32;;;;;;;16.40;100.00;100727.41;5077734;28;20047;-81
2023/05/30 10:10:12;;;;;;;18.77;8.95;;;;;;;16.41;100.00;100715.81;5081106;28;20394;-82
2023/05/30 10:12:57;;;;;;;12.25;7.57;;;;;;;15.97;100.00;100722.94;5080092;28;20464;-78
2023/05/30 10:15:41;;;;;;;20.10;8.77;;;;;;;15.70;100.00;100732.41;5080138;28;20475;-77
2023/05/30 10:18:26;;;;;;;15.77;7.53;;;;;;;15.76;100.00;100726.38;5079476;28;20540;-78
2023/05/30 10:21:13;;;;;;;19.73;7.85;;;;;;;15.70;100.00;100732.41;5075649;28;20123;-76
2023/05/30 10:23:59;;;;;;;15.18;8.07;;;;;;;15.69;100.00;100738.69;5076841;28;20042;-76
2023/05/30 10:26:50;;;;;;;14.40;7.82;;;;;;;16.21;100.00;100731.53;5083544;28;20143;-85
2023/05/30 10:29:46;;;;;;;17.35;8.15;;;;;;;16.24;100.00;100738.28;5076376;28;20516;-85
2023/05/30 10:32:35;;;;;;;16.83;8.05;;;;;;;15.45;100.00;100740.66;5081448;28;20093;-86
2023/05/30 10:35:23;;;;;;;17.13;7.97;;;;;;;15.71;100.00;100739.34;5090266;28;20108;-86
2023/05/30 10:38:11;;;;;;;13.38;7.38;;;;;;;15.60;100.00;100737.19;5079799;28;20059;-85
2023/05/30 10:41:03;;;;;;;15.38;7.45;;;;;;;16.03;100.00;100731.97;5086551;28;20058;-84
2023/05/30 10:44:05;;;;;;;17.20;8.32;;;;;;;16.37;100.00;100733.09;5088299;28;20039;-85
2023/05/30 10:47:16;;;;;;;14.75;8.75;;;;;;;15.36;100.00;100732.00;5085489;28;20446;-84
2023/05/30 10:50:05;;;;;;;15.30;9.10;;;;;;;15.28;100.00;100735.56;5082142;28;20054;-84
2023/05/30 10:52:48;;;;;;;16.77;9.43;;;;;;;15.35;100.00;100730.38;5075387;28;20051;-86
2023/05/30 10:55:32;;;;;;;20.45;9.10;;;;;;;15.92;100.00;100721.91;5086763;28;20394;-86
2023/05/30 10:58:37;;;;;;;15.10;9.23;;;;;;;15.05;100.00;100711.06;5081662;28;20055;-82
2023/05/30 11:01:33;;;;;;;15.50;9.23;;;;;;;15.57;100.00;100723.31;5077949;28;20055;-84
2023/05/30 11:04:17;;;;;;;16.42;9.02;;;;;;;16.17;100.00;100716.22;5089147;28;20039;-82
2023/05/30 11:07:06;;;;;;;13.60;8.18;;;;;;;16.57;100.00;100713.88;5085795;28;20089;-79
2023/05/30 11:10:14;;;;;;;13.77;8.60;;;;;;;16.30;100.00;100699.59;5092048;28;20508;-80
2023/05/30 11:13:10;;;;;;;15.52;8.13;;;;;;;16.69;100.00;100717.63;5092806;28;20160;-80
2023/05/30 11:15:55;;;;;;;19.02;8.63;;;;;;;15.59;100.00;100715.19;5093005;28;20217;-79
2023/05/30 11:18:39;;;;;;;18.90;8.55;;;;;;;16.41;100.00;100707.03;5092151;28;20136;-80
2023/05/30 11:21:56;;;;;;;13.07;7.70;;;;;;;16.52;100.00;100718.94;5090146;28;20067;-80
2023/05/30 11:24:41;;;;;;;16.08;8.50;;;;;;;16.59;100.00;100714.50;5093031;28;20054;-80
2023/05/30 11:27:25;;;;;;;12.63;8.00;;;;;;;16.48;100.00;100709.72;5093009;28;20051;-80
2023/05/30 11:30:19;;;;;;;15.25;8.55;;;;;;;16.57;100.00;100713.88;5051818;28;20052;-79
2023/05/30 11:33:04;;;;;;;11.95;7.20;;;;;;;16.80;100.00;100705.69;5054012;28;20086;-80
2023/05/30 11:35:49;;;;;;;10.75;7.20;;;;;;;16.90;100.00;100707.16;5092759;28;20374;-79
2023/05/30 11:38:33;;;;;;;12.68;7.22;;;;;;;16.36;100.00;100704.97;5092652;28;20443;-79
2023/05/30 11:41:17;;;;;;;14.13;7.15;;;;;;;16.49;100.00;100714.84;5092813;28;20043;-80
2023/05/30 11:44:02;;;;;;;14.43;8.57;;;;;;;15.51;100.00;100716.09;5094322;28;20050;-79
2023/05/30 11:47:09;;;;;;;16.17;7.97;;;;;;;16.27;100.00;100717.53;5096851;28;20062;-78
2023/05/30 11:49:55;;;;;;;15.27;8.18;;;;;;;16.48;100.00;100717.69;5096707;28;20043;-80
2023/05/30 11:52:40;;;;;;;10.48;7.82;;;;;;;16.68;100.00;100713.34;5096544;28;20043;-79
2023/05/30 11:55:24;;;;;;;13.35;7.85;;;;;;;16.63;100.00;100707.81;5085959;28;20101;-79
2023/05/30 11:58:09;;;;;;;11.50;7.68;;;;;;;16.14;100.00;100698.84;5076414;28;20148;-79
2023/05/30 12:00:52;;;;;;;;;;;;;;;16.54;100.00;100707.13;5075756;28;20078;-79
2023/05/30 12:03:38;;;;;;;16.40;8.40;;;;;;;16.27;100.00;100711.41;5091642;28;19919;-78
2023/05/30 12:06:23;;;;;;;13.40;8.60;;;;;;;16.36;100.00;100710.25;5089746;28;20044;-79
2023/05/30 12:09:06;;;;;;;;;;;;;;;16.85;100.00;100713.03;5076398;28;20551;-80
2023/05/30 12:11:58;;;;;;;15.57;9.30;;;;;;;16.31;100.00;100707.38;5076117;28;19962;-80
2023/05/30 12:14:47;;;;;;;13.60;8.35;;;;;;;16.84;100.00;100706.09;5092790;28;20093;-80
2023/05/30 12:17:31;;;;;;;16.65;9.25;;;;;;;16.64;100.00;100690.88;5096162;28;20050;-80
2023/05/30 12:20:16;;;;;;;12.93;9.38;;;;;;;17.00;100.00;100705.00;5056012;28;20075;-79
2023/05/30 12:23:04;;;;;;;20.60;9.48;;;;;;;16.82;100.00;100697.53;5055044;28;20060;-78
2023/05/30 12:25:50;;;;;;;10.82;8.20;;;;;;;17.09;100.00;100692.38;5055771;28;20063;-79
2023/05/30 12:29:26;;;;;;;13.13;8.98;;;;;;;16.25;100.00;100695.72;5055456;28;20060;-79
2023/05/30 12:32:11;;;;;;;14.60;8.30;;;;;;;16.67;100.00;100701.09;5060583;28;20413;-80
2023/05/30 12:34:57;;;;;;;12.85;8.68;;;;;;;16.33;100.00;100689.44;5094851;28;20051;-79
2023/05/30 12:37:42;;;;;;;13.88;8.65;;;;;;;16.61;100.00;100691.28;5094780;28;20094;-79